Time;durP1;ratioP1;P1;durP2;ratioP2;P2;SDS_P1;SDS_P2;PMS_P1;PMS_P2;Temp;Humidity;BMP_temperature;BMP_pressure;BME280_temperature;BME280_humidity;BME280_pressure;Samples;Min_cycle;Max_cycle;Signal;HPM_P1;HPM_P2
2021/01/08 00:02:06;;;;;;;2.12;1.87;;;;;;;2.41;77.60;99463.88;1741043;80;21115;-69
2021/01/08 00:04:34;;;;;;;2.22;1.72;;;;;;;2.42;77.45;99478.61;1722136;82;22121;-68
2021/01/08 00:07:02;;;;;;;2.22;1.90;;;;;;;2.41;77.18;99464.34;1729490;80;21198;-69
2021/01/08 00:09:30;;;;;;;2.80;2.20;;;;;;;2.42;77.27;99476.47;1746410;82;21116;-69
2021/01/08 00:11:58;;;;;;;2.67;2.10;;;;;;;2.42;77.34;99477.77;1726276;80;21179;-69
2021/01/08 00:14:26;;;;;;;2.87;2.58;;;;;;;2.42;77.38;99481.22;1729140;80;21088;-69
2021/01/08 00:16:53;;;;;;;3.15;2.50;;;;;;;2.43;77.55;99487.27;1742980;81;21905;-69
2021/01/08 00:19:22;;;;;;;3.27;2.40;;;;;;;2.44;77.60;99493.68;1729259;80;21088;-69
2021/01/08 00:21:49;;;;;;;2.95;2.65;;;;;;;2.44;77.73;99501.97;1735528;80;21123;-69
2021/01/08 00:24:18;;;;;;;3.62;3.05;;;;;;;2.44;77.73;99503.27;1728249;80;21174;-69
2021/01/08 00:26:47;;;;;;;4.42;3.45;;;;;;;2.45;77.80;99486.70;1720456;80;21111;-68
2021/01/08 00:29:17;;;;;;;4.00;3.22;;;;;;;2.46;77.76;99497.49;1731985;81;21836;-68
2021/01/08 00:31:46;;;;;;;4.05;3.35;;;;;;;2.47;77.86;99489.58;1725802;80;21151;-68
2021/01/08 00:34:18;;;;;;;4.30;3.47;;;;;;;2.46;77.98;99484.46;1737125;81;21345;-68
2021/01/08 00:36:53;;;;;;;4.33;3.92;;;;;;;2.47;78.08;99495.25;1722340;80;21231;-69
2021/01/08 00:39:23;;;;;;;4.90;4.30;;;;;;;2.47;78.26;99479.15;1743623;80;21112;-69
2021/01/08 00:41:50;;;;;;;4.47;4.05;;;;;;;2.49;78.33;99482.97;1742839;80;21965;-69
2021/01/08 00:44:18;;;;;;;5.05;3.65;;;;;;;2.49;78.39;99477.28;1717974;83;21127;-72
2021/01/08 00:46:48;;;;;;;4.87;4.47;;;;;;;2.49;78.45;99480.36;1720660;80;21101;-77
2021/01/08 00:49:16;;;;;;;5.55;4.15;;;;;;;2.48;78.42;99493.86;1737685;81;21119;-73
2021/01/08 00:51:44;;;;;;;5.42;4.58;;;;;;;2.50;78.43;99521.13;1721081;80;21158;-74
2021/01/08 00:54:12;;;;;;;4.30;3.90;;;;;;;2.50;78.47;99499.81;1743488;80;22502;-73
2021/01/08 00:56:41;;;;;;;4.80;4.28;;;;;;;2.52;78.33;99495.36;1729258;81;21168;-73
2021/01/08 00:59:10;;;;;;;4.40;3.80;;;;;;;2.53;78.33;99494.44;1737308;80;21134;-73
2021/01/08 01:01:38;;;;;;;4.33;3.92;;;;;;;2.54;78.24;99490.89;1724012;80;21167;-73
2021/01/08 01:04:06;;;;;;;4.30;3.90;;;;;;;2.54;78.20;99498.71;1719600;80;21080;-73
2021/01/08 01:06:35;;;;;;;3.85;3.27;;;;;;;2.54;77.91;99501.78;1739315;80;22758;-73
2021/01/08 01:09:04;;;;;;;4.62;4.00;;;;;;;2.55;77.50;99506.06;1728239;80;21119;-73
2021/01/08 01:11:32;;;;;;;4.80;4.40;;;;;;;2.58;77.62;99503.27;1729221;81;21063;-74
2021/01/08 01:13:59;;;;;;;3.98;3.40;;;;;;;2.58;77.50;99508.01;1730836;80;21562;-73
2021/01/08 01:16:28;;;;;;;4.00;3.37;;;;;;;2.58;77.44;99496.74;1729032;80;21115;-73
2021/01/08 01:18:57;;;;;;;3.45;3.08;;;;;;;2.58;77.38;99504.56;1723525;80;22941;-73
2021/01/08 01:21:26;;;;;;;3.67;3.37;;;;;;;2.58;77.31;99493.67;1727831;80;21234;-73
2021/01/08 01:23:55;;;;;;;3.70;3.00;;;;;;;2.58;77.26;99511.08;1731920;80;21096;-72
2021/01/08 01:26:25;;;;;;;4.20;3.45;;;;;;;2.57;77.12;99532.41;1728224;80;21222;-72
2021/01/08 01:28:53;;;;;;;3.83;3.30;;;;;;;2.59;77.20;99524.48;1729477;80;21503;-73
2021/01/08 01:31:20;;;;;;;3.37;2.98;;;;;;;2.58;77.00;99529.33;1742370;82;24162;-72
2021/01/08 01:33:48;;;;;;;3.12;2.80;;;;;;;2.59;76.84;99528.39;1729709;82;22491;-72
2021/01/08 01:36:17;;;;;;;2.95;2.70;;;;;;;2.58;76.35;99532.77;1730861;80;21131;-72
2021/01/08 01:38:44;;;;;;;2.90;2.50;;;;;;;2.59;76.36;99534.91;1720577;81;21075;-70
2021/01/08 01:41:13;;;;;;;3.20;2.90;;;;;;;2.60;76.45;99535.28;1724421;80;21127;-70
2021/01/08 01:43:41;;;;;;;3.62;3.30;;;;;;;2.58;76.42;99532.77;1742581;82;21891;-71
2021/01/08 01:46:17;;;;;;;4.05;3.65;;;;;;;2.58;76.62;99522.34;1723821;80;21130;-70
2021/01/08 01:48:45;;;;;;;3.77;3.40;;;;;;;2.58;76.74;99533.24;1702160;81;21135;-70
2021/01/08 01:51:13;;;;;;;3.83;3.25;;;;;;;2.57;76.87;99541.53;1738688;80;21096;-71
2021/01/08 01:53:40;;;;;;;3.90;3.12;;;;;;;2.56;76.97;99545.07;1735894;80;21135;-71
2021/01/08 01:56:09;;;;;;;4.65;3.85;;;;;;;2.55;77.02;99551.68;1737019;80;22049;-71
2021/01/08 01:58:37;;;;;;;3.17;2.83;;;;;;;2.54;76.92;99560.44;1730566;80;21079;-71
2021/01/08 02:01:05;;;;;;;3.40;3.00;;;;;;;2.53;76.83;99550.94;1736777;80;21092;-71
2021/01/08 02:03:51;;;;;;;4.28;3.58;;;;;;;2.51;76.99;99544.95;1726020;82;21478;-71
2021/01/08 02:06:23;;;;;;;5.12;4.10;;;;;;;2.50;77.00;99541.98;1718954;82;21119;-71
2021/01/08 02:08:55;;;;;;;6.15;3.62;;;;;;;;;;1734968;81;22066;-70
2021/01/08 02:11:26;;;;;;;4.92;3.77;;;;;;;2.46;76.64;99571.31;1695675;82;21065;-70
2021/01/08 02:14:11;;;;;;;4.83;3.85;;;;;;;2.45;76.40;99581.36;1691196;82;21088;-71
2021/01/08 02:16:39;;;;;;;4.97;3.75;;;;;;;2.44;76.40;99575.78;1684254;82;22747;-71
2021/01/08 02:19:13;;;;;;;4.33;3.92;;;;;;;2.44;76.43;99567.13;1696050;82;21093;-71
2021/01/08 02:21:50;;;;;;;4.40;3.70;;;;;;;2.42;76.36;99573.73;1695095;82;22966;-71
2021/01/08 02:24:31;;;;;;;4.95;3.72;;;;;;;2.42;76.42;99568.98;1675733;84;21235;-71
2021/01/08 02:26:59;;;;;;;5.33;4.15;;;;;;;2.41;76.44;99597.25;1700086;82;21181;-71
2021/01/08 02:29:26;;;;;;;6.08;4.10;;;;;;;2.38;76.44;99595.67;1651460;82;21180;-72
2021/01/08 02:31:54;;;;;;;5.40;4.22;;;;;;;2.38;76.44;99598.28;1676564;82;21120;-71
2021/01/08 02:34:23;;;;;;;5.20;4.33;;;;;;;2.37;76.46;99602.28;1682020;82;21910;-71
2021/01/08 02:36:51;;;;;;;4.83;4.12;;;;;;;2.36;76.35;99607.13;1683482;82;21131;-72
2021/01/08 02:39:20;;;;;;;4.70;4.17;;;;;;;2.36;76.28;99613.17;1646647;85;21147;-71
2021/01/08 02:41:51;;;;;;;5.60;4.30;;;;;;;2.37;76.25;99615.31;1683426;82;21456;-71
2021/01/08 02:44:18;;;;;;;4.62;3.80;;;;;;;2.36;75.88;99622.75;1653504;82;21511;-71
2021/01/08 02:46:46;;;;;;;5.65;4.35;;;;;;;2.37;75.92;99627.87;1635164;85;21915;-71
2021/01/08 02:49:14;;;;;;;5.55;4.50;;;;;;;2.36;75.64;99631.41;1685773;82;21120;-71
2021/01/08 02:51:41;;;;;;;6.08;4.50;;;;;;;2.35;75.70;99621.92;1703952;84;21163;-71
2021/01/08 02:54:09;;;;;;;7.00;5.25;;;;;;;2.34;75.51;99634.58;1670568;82;21188;-70
2021/01/08 02:56:44;;;;;;;6.55;4.72;;;;;;;2.34;75.55;99637.65;1678228;82;21072;-71
2021/01/08 02:59:13;;;;;;;6.20;5.00;;;;;;;2.32;75.33;99624.71;1681194;82;21905;-72
2021/01/08 03:01:41;;;;;;;5.65;4.62;;;;;;;2.33;75.31;99626.39;1699014;82;21148;-71
2021/01/08 03:04:09;;;;;;;5.42;4.22;;;;;;;2.33;75.38;99643.79;1716475;80;21427;-71
2021/01/08 03:06:40;;;;;;;7.17;5.90;;;;;;;2.32;75.29;99643.38;1718392;80;21067;-72
2021/01/08 03:09:08;;;;;;;6.92;5.42;;;;;;;2.32;75.25;99643.38;1739631;80;21179;-72
2021/01/08 03:11:35;;;;;;;7.17;5.40;;;;;;;2.30;75.23;99648.22;1742659;80;21898;-72
2021/01/08 03:14:04;;;;;;;8.63;6.12;;;;;;;2.30;75.11;99658.65;1728718;80;21147;-72
2021/01/08 03:16:31;;;;;;;7.87;6.00;;;;;;;2.29;74.96;99658.27;1721702;80;21577;-73
2021/01/08 03:18:59;;;;;;;7.90;6.05;;;;;;;2.30;75.08;99657.34;1724480;80;22750;-72
2021/01/08 03:21:27;;;;;;;8.48;6.58;;;;;;;2.28;74.84;99657.91;1744710;80;21056;-73
2021/01/08 03:23:55;;;;;;;10.18;7.75;;;;;;;2.27;74.83;99658.83;1730446;80;22067;-72
2021/01/08 03:26:23;;;;;;;8.28;6.58;;;;;;;2.27;74.71;99654.08;1719860;80;21510;-72
2021/01/08 03:28:51;;;;;;;10.45;7.72;;;;;;;2.28;74.50;99653.16;1732830;81;21123;-72
2021/01/08 03:31:19;;;;;;;10.05;8.30;;;;;;;2.29;74.52;99680.89;1738346;80;21151;-72
2021/01/08 03:33:47;;;;;;;10.63;7.47;;;;;;;2.29;74.63;99672.61;1732795;81;21397;-72
2021/01/08 03:36:15;;;;;;;9.63;7.45;;;;;;;2.29;74.68;99677.81;1736943;80;22065;-71
2021/01/08 03:38:43;;;;;;;11.73;8.00;;;;;;;2.28;74.69;99677.91;1732140;80;21107;-72
2021/01/08 03:41:10;;;;;;;11.30;8.15;;;;;;;2.27;74.74;99672.32;1719765;81;21140;-72
2021/01/08 03:43:38;;;;;;;13.48;8.73;;;;;;;2.26;74.78;99675.39;1721631;80;21203;-72
2021/01/08 03:46:07;;;;;;;11.73;8.10;;;;;;;2.24;74.84;99669.44;1725442;80;21056;-72
2021/01/08 03:48:39;;;;;;;13.40;9.60;;;;;;;2.25;74.93;99674.18;1729760;80;21897;-73
2021/01/08 03:51:04;;;;;;;13.08;9.68;;;;;;;2.24;74.98;99683.77;1729194;82;21089;-73
2021/01/08 03:53:32;;;;;;;13.90;11.40;;;;;;;2.23;74.92;99690.38;1730241;80;21087;-72
2021/01/08 03:56:00;;;;;;;14.43;10.85;;;;;;;2.24;75.01;99682.93;1743599;80;21138;-73
2021/01/08 03:58:28;;;;;;;16.15;11.10;;;;;;;2.24;75.02;99687.67;1714312;82;21124;-72
2021/01/08 04:00:55;;;;;;;15.50;10.85;;;;;;;2.23;75.07;99680.79;1700262;82;22137;-72
2021/01/08 04:03:23;;;;;;;17.50;12.10;;;;;;;2.22;74.97;99683.45;1688303;82;21139;-72
2021/01/08 04:05:51;;;;;;;15.13;10.65;;;;;;;2.22;75.05;99693.44;1680901;85;21143;-72
2021/01/08 04:08:18;;;;;;;13.32;9.55;;;;;;;2.21;75.08;99699.55;1668214;84;21187;-72
2021/01/08 04:10:46;;;;;;;17.50;12.05;;;;;;;2.21;75.22;99698.25;1693072;82;21057;-73
2021/01/08 04:13:14;;;;;;;19.07;12.30;;;;;;;2.21;75.15;99700.85;1691007;82;21913;-73
2021/01/08 04:15:42;;;;;;;21.45;13.88;;;;;;;2.20;75.15;99701.78;1686626;82;21172;-73
2021/01/08 04:18:10;;;;;;;19.40;12.90;;;;;;;2.18;75.19;99698.42;1700169;82;21085;-72
2021/01/08 04:20:39;;;;;;;17.05;12.05;;;;;;;2.17;75.00;99695.45;1704050;84;21194;-73
2021/01/08 04:23:06;;;;;;;17.20;13.40;;;;;;;2.17;75.08;99704.56;1715247;83;21060;-73
2021/01/08 04:25:35;;;;;;;18.35;12.40;;;;;;;2.16;75.04;99696.37;1691309;82;21917;-72
2021/01/08 04:28:03;;;;;;;18.00;12.37;;;;;;;2.15;75.07;99702.52;1705637;82;21112;-73
2021/01/08 04:30:31;;;;;;;19.82;12.80;;;;;;;2.14;75.11;99707.35;1684506;82;21159;-74
2021/01/08 04:32:59;;;;;;;20.92;14.07;;;;;;;2.14;75.11;99705.21;1695319;82;21179;-72
2021/01/08 04:35:27;;;;;;;21.62;14.20;;;;;;;2.12;75.21;99711.78;1687009;82;21089;-72
2021/01/08 04:37:55;;;;;;;16.00;11.40;;;;;;;2.12;75.16;99716.16;1694602;82;22089;-72
2021/01/08 04:40:23;;;;;;;19.75;14.28;;;;;;;2.12;75.22;99720.06;1694527;82;21578;-69
2021/01/08 04:42:50;;;;;;;21.55;14.95;;;;;;;2.14;75.07;99720.84;1689157;82;21159;-70
2021/01/08 04:45:19;;;;;;;24.07;14.90;;;;;;;2.15;75.10;99714.70;1695898;82;21147;-70
2021/01/08 04:47:47;;;;;;;19.32;13.20;;;;;;;2.16;75.14;99715.08;1682044;84;21096;-70
2021/01/08 04:50:16;;;;;;;21.20;14.40;;;;;;;2.16;75.08;99716.38;1691317;82;23017;-70
2021/01/08 04:52:44;;;;;;;21.12;14.58;;;;;;;2.15;74.91;99727.27;1701119;82;21604;-71
2021/01/08 04:55:13;;;;;;;21.52;15.48;;;;;;;2.16;74.92;99726.80;1678093;82;21116;-71
2021/01/08 04:57:41;;;;;;;20.55;14.38;;;;;;;2.15;74.96;99722.05;1686021;82;21538;-71
2021/01/08 05:00:11;;;;;;;22.07;14.18;;;;;;;2.16;74.95;99728.10;1667035;82;21542;-70
2021/01/08 05:02:39;;;;;;;20.35;13.95;;;;;;;2.17;74.79;99723.27;1689180;82;22074;-70
2021/01/08 05:05:09;;;;;;;19.90;13.62;;;;;;;2.17;74.87;99730.62;1672385;85;21215;-70
2021/01/08 05:07:37;;;;;;;21.07;13.15;;;;;;;2.18;74.79;99735.36;1696878;82;21092;-70
2021/01/08 05:10:08;;;;;;;20.35;13.93;;;;;;;2.18;74.61;99728.39;1709134;82;21176;-70
2021/01/08 05:12:43;;;;;;;21.25;14.20;;;;;;;2.16;74.64;99732.84;1673426;84;21080;-71
2021/01/08 05:15:15;;;;;;;24.60;16.90;;;;;;;2.16;74.61;99735.92;1703463;82;22299;-70
2021/01/08 05:17:44;;;;;;;20.43;14.20;;;;;;;2.15;74.60;99736.38;1674130;84;21510;-70
2021/01/08 05:20:13;;;;;;;22.62;16.25;;;;;;;2.15;74.59;99740.29;1699319;82;21185;-72
2021/01/08 05:22:40;;;;;;;23.42;15.15;;;;;;;2.18;74.60;99736.20;1696844;82;21154;-70
2021/01/08 05:25:13;;;;;;;18.98;13.48;;;;;;;2.17;74.38;99743.64;1679427;83;21166;-70
2021/01/08 05:27:41;;;;;;;22.75;14.05;;;;;;;2.18;74.33;99740.11;1705159;82;22075;-71
2021/01/08 05:30:21;;;;;;;19.55;12.45;;;;;;;2.18;74.20;99750.53;1683900;83;21213;-70
2021/01/08 05:32:57;;;;;;;18.27;12.13;;;;;;;2.16;74.00;99745.03;1702849;82;21134;-71
2021/01/08 05:35:25;;;;;;;21.00;14.43;;;;;;;2.15;73.90;99742.05;1685215;82;21111;-71
2021/01/08 05:37:54;;;;;;;19.85;13.38;;;;;;;2.14;73.93;99751.64;1701408;82;21119;-70
2021/01/08 05:40:26;;;;;;;24.72;14.50;;;;;;;2.13;74.00;99764.29;1690108;82;22096;-70
2021/01/08 05:42:59;;;;;;;18.42;12.03;;;;;;;2.14;73.99;99763.83;1711761;82;21522;-70
2021/01/08 05:45:28;;;;;;;;;;;;;;;2.12;73.76;99767.79;1701457;82;21165;-70
2021/01/08 05:48:01;;;;;;;19.90;12.75;;;;;;;2.13;73.75;99763.45;1687254;83;20265;-71
2021/01/08 05:50:29;;;;;;;20.80;13.48;;;;;;;2.11;73.47;99762.20;1717005;82;21436;-70
2021/01/08 05:55:46;;;;;;;21.85;14.53;;;;;;;2.14;73.50;99770.34;1870970;75;29345;-70
2021/01/08 05:58:24;;;;;;;22.35;14.98;;;;;;;2.12;73.63;99779.98;1830887;77;21112;-69
2021/01/08 06:01:02;;;;;;;21.30;13.08;;;;;;;2.11;73.68;99780.44;1798019;78;22158;-70
2021/01/08 06:03:31;;;;;;;23.32;15.65;;;;;;;2.12;73.78;99786.02;1796123;79;21124;-69
2021/01/08 06:06:00;;;;;;;22.87;15.65;;;;;;;2.12;73.83;99794.30;1807338;77;21149;-70
2021/01/08 06:08:36;;;;;;;22.73;14.47;;;;;;;2.12;73.84;99787.79;1832551;77;21529;-70
2021/01/08 06:11:06;;;;;;;20.88;12.90;;;;;;;2.10;73.71;99783.97;1790616;80;21044;-70
2021/01/08 06:13:35;;;;;;;25.25;14.93;;;;;;;2.09;73.35;99791.41;1790870;79;22053;-70
2021/01/08 06:16:04;;;;;;;28.12;14.87;;;;;;;2.10;73.22;99793.55;1793065;79;21113;-69
2021/01/08 06:18:37;;;;;;;20.68;13.30;;;;;;;2.10;73.26;99803.51;1793957;79;21146;-70
2021/01/08 06:21:07;;;;;;;21.45;13.28;;;;;;;2.09;73.03;99791.41;1791240;79;21042;-69
2021/01/08 06:23:40;;;;;;;17.57;10.93;;;;;;;2.11;73.13;99810.40;1794076;79;21509;-69
2021/01/08 06:26:17;;;;;;;22.05;13.62;;;;;;;2.13;73.27;99805.13;1803731;79;22086;-70
2021/01/08 06:28:52;;;;;;;23.55;15.72;;;;;;;2.11;73.16;99810.40;1796004;78;21110;-69
2021/01/08 06:31:25;;;;;;;20.68;13.50;;;;;;;2.12;73.32;99816.45;1794432;79;21193;-70
2021/01/08 06:33:58;;;;;;;22.20;14.63;;;;;;;2.12;73.44;99814.68;1788397;79;21122;-72
2021/01/08 06:36:31;;;;;;;24.07;15.65;;;;;;;2.14;73.55;99823.74;1792415;79;21422;-71
2021/01/08 06:41:46;;;;;;;22.27;12.78;;;;;;;2.14;73.39;99808.95;1880594;76;28994;-70
2021/01/08 06:44:14;;;;;;;19.40;12.23;;;;;;;2.08;73.16;99814.48;1725486;80;21049;-71
2021/01/08 06:46:44;;;;;;;16.70;11.63;;;;;;;2.06;72.93;99822.84;1746127;80;22934;-71
2021/01/08 06:49:12;;;;;;;20.52;13.70;;;;;;;2.06;72.94;99833.73;1773493;80;21051;-71
2021/01/08 06:51:41;;;;;;;17.73;11.97;;;;;;;2.04;72.96;99830.37;1807518;78;21062;-71
2021/01/08 06:54:12;;;;;;;18.90;12.03;;;;;;;2.04;73.00;99835.11;1770871;78;21116;-71
2021/01/08 06:56:43;;;;;;;20.12;12.85;;;;;;;2.08;73.09;99845.73;1816824;78;21105;-70
2021/01/08 06:59:13;;;;;;;19.17;11.65;;;;;;;2.08;73.05;99852.72;1790934;78;21899;-70
2021/01/08 07:02:11;;;;;;;18.85;11.73;;;;;;;2.07;72.62;99854.94;1789004;78;21078;-72
2021/01/08 07:04:39;;;;;;;15.98;10.10;;;;;;;2.04;72.69;99866.83;1760256;79;21501;-70
2021/01/08 07:07:12;;;;;;;22.30;15.28;;;;;;;2.04;72.88;99873.34;1793807;79;21098;-71
2021/01/08 07:09:41;;;;;;;20.30;13.00;;;;;;;2.03;72.79;99872.50;1785550;79;27436;-70
2021/01/08 07:12:11;;;;;;;22.50;13.15;;;;;;;2.04;72.79;99878.09;1748750;82;23147;-71
2021/01/08 07:14:39;;;;;;;18.32;12.18;;;;;;;2.05;72.68;99889.35;1717371;83;21116;-71
2021/01/08 07:17:15;;;;;;;20.43;12.90;;;;;;;2.04;72.77;99892.42;1729722;81;21190;-69
2021/01/08 07:19:44;;;;;;;19.60;11.95;;;;;;;2.03;72.84;99893.34;1729407;83;21125;-70
2021/01/08 07:22:18;;;;;;;23.52;15.20;;;;;;;2.05;73.13;99897.17;1729604;81;21102;-71
2021/01/08 07:24:48;;;;;;;24.30;15.80;;;;;;;2.06;73.39;99911.41;1728341;83;22109;-68
2021/01/08 07:27:27;;;;;;;21.68;13.43;;;;;;;2.09;73.55;99917.75;1729585;81;21161;-69
2021/01/08 07:29:57;;;;;;;20.02;12.95;;;;;;;2.10;73.56;99918.59;1739824;82;21175;-67
2021/01/08 07:32:36;;;;;;;22.30;13.15;;;;;;;2.08;73.60;99929.09;1731165;81;21537;-72
2021/01/08 07:35:24;;;;;;;20.65;12.55;;;;;;;2.07;73.48;99933.09;1730568;81;21168;-71
2021/01/08 07:38:13;;;;;;;22.30;13.40;;;;;;;2.06;73.48;99927.50;1731207;81;21917;-72
2021/01/08 07:40:57;;;;;;;16.67;10.93;;;;;;;2.05;73.31;99938.84;1729368;81;21066;-69
2021/01/08 07:43:35;;;;;;;12.07;8.23;;;;;;;2.06;73.23;99935.31;1734932;81;21178;-68
2021/01/08 07:46:05;;;;;;;12.13;8.03;;;;;;;2.06;72.62;99928.34;1747044;81;21149;-68
2021/01/08 07:48:35;;;;;;;13.60;8.85;;;;;;;2.04;72.33;99929.35;1741909;81;21501;-69
2021/01/08 07:51:10;;;;;;;13.53;9.40;;;;;;;2.03;72.12;99924.60;1727581;82;22187;-72
2021/01/08 07:53:49;;;;;;;11.70;7.92;;;;;;;2.03;72.19;99940.23;1728854;83;21161;-71
2021/01/08 07:56:22;;;;;;;13.80;8.85;;;;;;;2.05;71.87;99941.45;1738943;81;21137;-71
2021/01/08 07:59:06;;;;;;;12.78;9.80;;;;;;;2.06;71.79;99953.55;1747557;81;21576;-71
2021/01/08 08:01:34;;;;;;;;;;;;;;;2.06;71.62;99949.18;1732697;81;21169;-71
2021/01/08 08:04:10;;;;;;;13.38;8.28;;;;;;;2.04;71.67;99948.42;1734652;81;21899;-69
2021/01/08 08:06:40;;;;;;;14.78;9.88;;;;;;;2.04;71.76;99954.09;1735338;81;21139;-70
2021/01/08 08:09:16;;;;;;;15.80;9.30;;;;;;;2.04;71.86;99955.40;1729413;81;21162;-70
2021/01/08 08:11:45;;;;;;;11.70;7.80;;;;;;;2.05;71.91;99954.02;1729522;81;21198;-68
2021/01/08 08:14:20;;;;;;;14.65;9.70;;;;;;;2.06;71.90;99958.30;1730411;81;21161;-74
2021/01/08 08:16:49;;;;;;;11.25;7.95;;;;;;;2.06;71.88;99956.16;1730624;81;23006;-73
2021/01/08 08:19:17;;;;;;;14.18;9.38;;;;;;;2.07;71.90;99962.59;1748028;81;21153;-72
2021/01/08 08:21:50;;;;;;;15.43;10.48;;;;;;;2.07;71.82;99965.65;1745427;82;21149;-75
2021/01/08 08:24:18;;;;;;;13.38;8.15;;;;;;;2.07;71.97;99960.44;1735531;81;21155;-75
2021/01/08 08:26:47;;;;;;;17.27;11.33;;;;;;;2.06;72.14;99965.27;1706658;81;21134;-73
2021/01/08 08:29:17;;;;;;;15.65;10.08;;;;;;;2.07;72.16;99961.74;1743103;81;22835;-74
2021/01/08 08:31:51;;;;;;;16.50;10.35;;;;;;;2.08;72.13;99963.42;1745818;81;21172;-73
2021/01/08 08:34:29;;;;;;;15.08;9.80;;;;;;;2.08;72.03;99966.88;1711162;82;21126;-72
2021/01/08 08:37:11;;;;;;;15.48;10.95;;;;;;;2.09;71.88;99965.11;1730090;81;21142;-72
2021/01/08 08:39:40;;;;;;;13.20;8.73;;;;;;;2.09;71.81;99963.80;1742427;82;21118;-71
2021/01/08 08:42:09;;;;;;;17.17;11.25;;;;;;;2.10;71.62;99962.87;1734514;82;21925;-70
2021/01/08 08:44:42;;;;;;;15.23;10.48;;;;;;;2.11;71.72;99972.38;1708711;82;21620;-73
2021/01/08 08:47:11;;;;;;;13.45;9.40;;;;;;;2.11;71.61;99972.38;1731282;82;21177;-71
2021/01/08 08:49:41;;;;;;;11.85;7.65;;;;;;;2.11;71.44;99973.22;1723608;82;21153;-72
2021/01/08 08:52:09;;;;;;;13.75;9.28;;;;;;;2.11;70.92;99978.42;1696676;82;21040;-72
2021/01/08 08:54:39;;;;;;;13.25;8.78;;;;;;;2.11;70.61;99976.28;1723322;82;21242;-69
2021/01/08 08:57:09;;;;;;;11.43;8.35;;;;;;;2.08;70.43;99971.23;1721375;82;21214;-70
2021/01/08 08:59:45;;;;;;;13.38;8.88;;;;;;;2.06;70.48;99979.59;1723380;82;21182;-72
2021/01/08 09:02:27;;;;;;;13.38;9.68;;;;;;;2.03;70.25;99980.61;1723450;82;21112;-70
2021/01/08 09:05:02;;;;;;;13.98;9.88;;;;;;;2.00;70.18;99982.88;1727222;81;21186;-69
2021/01/08 09:07:36;;;;;;;15.08;10.28;;;;;;;2.00;70.34;99984.64;1714016;82;21177;-70
2021/01/08 09:10:09;;;;;;;;;;;;;;;1.99;70.47;99985.56;1730046;82;21213;-67
2021/01/08 09:13:01;;;;;;;13.88;9.43;;;;;;;1.98;70.30;99982.58;1717840;82;20231;-67
2021/01/08 09:15:33;;;;;;;13.22;9.38;;;;;;;1.96;70.26;99993.55;1716054;82;21522;-67
2021/01/08 09:18:43;;;;;;;12.58;7.75;;;;;;;1.92;70.16;99994.60;1724767;81;21212;-67
2021/01/08 09:21:19;;;;;;;12.03;8.10;;;;;;;1.91;70.11;99991.61;1739635;81;21971;-70
2021/01/08 09:23:47;;;;;;;12.23;8.33;;;;;;;1.90;70.05;99999.89;1713529;82;21183;-69
2021/01/08 09:26:17;;;;;;;13.72;8.90;;;;;;;1.90;70.16;100002.95;1728861;82;21170;-72
2021/01/08 09:28:51;;;;;;;15.53;10.85;;;;;;;1.91;70.04;100012.45;1680884;82;21168;-69
2021/01/08 09:31:40;;;;;;;12.82;9.18;;;;;;;1.90;70.19;100006.86;1753943;80;21469;-69
2021/01/08 09:34:09;;;;;;;15.05;10.08;;;;;;;1.89;70.15;100007.32;1742004;81;22092;-68
2021/01/08 09:36:38;;;;;;;11.95;8.38;;;;;;;1.90;70.31;100013.37;1747888;81;21133;-67
2021/01/08 09:39:09;;;;;;;18.32;10.75;;;;;;;1.88;70.14;100001.73;1753657;81;21185;-68
2021/01/08 09:41:38;;;;;;;18.45;10.50;;;;;;;1.90;70.25;99997.75;1739734;81;21203;-69
2021/01/08 09:44:10;;;;;;;23.02;12.70;;;;;;;1.89;69.99;100002.11;1735189;81;21161;-67
2021/01/08 09:46:59;;;;;;;18.40;10.58;;;;;;;1.86;69.95;99998.83;1744636;81;21838;-67
2021/01/08 09:49:53;;;;;;;16.20;10.70;;;;;;;1.86;70.12;99999.67;1738237;81;21660;-68
2021/01/08 09:52:29;;;;;;;13.93;10.18;;;;;;;1.86;70.29;100002.73;1698178;83;21142;-68
2021/01/08 09:54:59;;;;;;;11.20;7.75;;;;;;;1.86;70.15;100007.95;1696380;83;21225;-69
2021/01/08 09:57:29;;;;;;;18.57;11.85;;;;;;;1.83;70.23;99993.75;1699293;83;21040;-69
2021/01/08 09:59:59;;;;;;;16.57;10.48;;;;;;;1.79;70.17;99993.53;1667979;84;22983;-67
2021/01/08 10:02:36;;;;;;;16.37;10.30;;;;;;;1.79;70.46;99997.44;1745052;81;21205;-67
2021/01/08 10:05:10;;;;;;;14.13;10.05;;;;;;;1.81;70.60;99995.59;1744141;81;21615;-68
2021/01/08 10:07:42;;;;;;;13.98;9.65;;;;;;;1.83;70.62;99996.36;1738780;81;21255;-68
2021/01/08 10:10:15;;;;;;;15.30;9.73;;;;;;;1.83;70.44;99993.75;1691070;84;21172;-67
2021/01/08 10:12:48;;;;;;;15.28;9.65;;;;;;;1.78;70.25;99997.06;1713584;82;21900;-69
2021/01/08 10:15:18;;;;;;;12.55;8.35;;;;;;;1.73;70.15;99985.09;1738517;81;21185;-68
2021/01/08 10:17:50;;;;;;;20.77;12.53;;;;;;;1.71;70.24;99996.05;1693356;83;21450;-68
2021/01/08 10:20:23;;;;;;;14.00;9.20;;;;;;;1.70;70.24;99989.62;1699755;84;21186;-68
2021/01/08 10:22:52;;;;;;;16.23;10.48;;;;;;;1.69;70.35;99987.48;1694923;82;21217;-69
2021/01/08 10:25:28;;;;;;;11.93;8.25;;;;;;;1.69;70.42;99973.16;1746241;81;21999;-73
2021/01/08 10:28:24;;;;;;;13.98;9.63;;;;;;;1.70;70.51;99976.60;1738013;82;21189;-72
2021/01/08 10:30:54;;;;;;;16.93;11.15;;;;;;;1.70;70.46;99973.53;1703354;83;21142;-70
2021/01/08 10:33:24;;;;;;;13.32;9.08;;;;;;;1.70;70.55;99966.19;1734216;81;21113;-70
2021/01/08 10:35:54;;;;;;;16.37;10.60;;;;;;;1.71;70.65;99970.47;1734901;81;21152;-69
2021/01/08 10:38:22;;;;;;;11.30;8.40;;;;;;;1.68;70.64;99964.13;1697475;83;22083;-71
2021/01/08 10:40:50;;;;;;;15.08;10.00;;;;;;;1.67;70.59;99962.45;1734028;81;21706;-71
2021/01/08 10:43:18;;;;;;;13.90;9.80;;;;;;;1.67;70.55;99967.19;1730564;81;21153;-74
2021/01/08 10:45:45;;;;;;;15.28;10.98;;;;;;;1.66;70.46;99975.92;1713358;81;21476;-72
2021/01/08 10:48:15;;;;;;;13.65;9.60;;;;;;;1.64;70.32;99963.87;1768266;80;21190;-70
2021/01/08 10:50:44;;;;;;;12.35;8.80;;;;;;;1.63;70.29;99967.40;1740257;82;21912;-70
2021/01/08 10:53:12;;;;;;;17.27;10.32;;;;;;;1.63;70.36;99967.40;1717880;82;21672;-69
2021/01/08 10:55:40;;;;;;;14.13;10.08;;;;;;;1.62;70.12;99969.63;1727905;81;21201;-70
2021/01/08 10:58:07;;;;;;;13.03;9.10;;;;;;;1.58;69.91;99972.00;1741665;81;21191;-68
2021/01/08 11:00:37;;;;;;;13.38;9.20;;;;;;;1.54;70.07;99967.39;1727825;83;21137;-68
2021/01/08 11:03:05;;;;;;;13.25;9.25;;;;;;;1.52;70.09;99961.88;1728921;83;23087;-71
2021/01/08 11:05:42;;;;;;;24.87;15.48;;;;;;;1.52;70.18;99966.62;1728702;83;21111;-71
2021/01/08 11:08:10;;;;;;;17.12;12.03;;;;;;;1.52;70.20;99965.33;1728708;81;21419;-69
2021/01/08 11:10:38;;;;;;;15.55;10.15;;;;;;;1.55;70.32;99966.50;1745937;81;21453;-67
2021/01/08 11:13:07;;;;;;;14.78;10.85;;;;;;;1.56;70.07;99962.97;1742142;82;21433;-67
2021/01/08 11:15:35;;;;;;;12.30;8.43;;;;;;;1.56;69.81;99966.88;1737124;81;22910;-69
2021/01/08 11:18:04;;;;;;;11.43;9.18;;;;;;;1.56;69.95;99962.13;1743162;81;21446;-69
2021/01/08 11:20:32;;;;;;;13.85;10.58;;;;;;;1.58;70.18;99970.70;1738851;81;21142;-68
2021/01/08 11:23:04;;;;;;;13.22;9.15;;;;;;;1.59;69.96;99966.72;1730533;81;21248;-73
2021/01/08 11:25:33;;;;;;;13.55;10.05;;;;;;;1.59;70.05;99971.92;1733735;81;21153;-73
2021/01/08 11:28:01;;;;;;;12.70;8.35;;;;;;;1.59;69.95;99964.58;1728555;81;21897;-71
2021/01/08 11:30:29;;;;;;;19.67;12.20;;;;;;;1.59;70.03;99967.18;1735193;81;21130;-72
2021/01/08 11:32:57;;;;;;;23.12;13.03;;;;;;;1.60;70.12;99959.29;1728699;81;21129;-72
2021/01/08 11:35:26;;;;;;;12.60;9.20;;;;;;;1.63;70.18;99962.19;1730698;81;21465;-69
2021/01/08 11:37:54;;;;;;;14.93;9.63;;;;;;;1.63;69.80;99969.54;1728835;81;21087;-70
2021/01/08 11:40:22;;;;;;;12.70;9.18;;;;;;;1.61;69.83;99967.48;1728663;83;21908;-71
2021/01/08 11:42:50;;;;;;;13.35;9.43;;;;;;;1.62;69.89;99970.92;1741746;82;21090;-69
2021/01/08 11:45:19;;;;;;;13.20;10.00;;;;;;;1.62;69.74;99973.06;1763307;81;21556;-69
2021/01/08 11:47:48;;;;;;;15.08;10.68;;;;;;;1.61;69.74;99977.05;1735166;82;21124;-68
2021/01/08 11:50:16;;;;;;;13.65;10.45;;;;;;;1.63;69.86;99974.75;1723852;82;21075;-70
2021/01/08 11:52:43;;;;;;;12.37;8.95;;;;;;;1.64;69.65;99981.67;1707227;82;22087;-69
2021/01/08 11:55:13;;;;;;;12.03;8.60;;;;;;;1.62;69.60;99971.77;1719860;82;21107;-69
2021/01/08 11:57:40;;;;;;;13.05;9.63;;;;;;;1.62;69.68;99975.67;1707497;82;21079;-70